sensor_id;sensor_type;location;lat;lon;timestamp;temperature;humidity
36280;DHT22;22317;47.936;12.742;2023-04-25T00:01:31;6.20;55.30
36280;DHT22;22317;47.936;12.742;2023-04-25T00:03:59;6.30;55.50
36280;DHT22;22317;47.936;12.742;2023-04-25T00:06:24;6.20;55.30
36280;DHT22;22317;47.936;12.742;2023-04-25T00:08:53;6.20;55.20
36280;DHT22;22317;47.936;12.742;2023-04-25T00:11:19;6.20;55.20
36280;DHT22;22317;47.936;12.742;2023-04-25T00:13:45;6.20;55.30
36280;DHT22;22317;47.936;12.742;2023-04-25T00:16:12;6.20;55.20
36280;DHT22;22317;47.936;12.742;2023-04-25T00:18:41;6.20;55.30
36280;DHT22;22317;47.936;12.742;2023-04-25T00:21:06;6.20;55.40
36280;DHT22;22317;47.936;12.742;2023-04-25T00:23:32;6.20;55.40
36280;DHT22;22317;47.936;12.742;2023-04-25T00:25:58;6.20;55.40
36280;DHT22;22317;47.936;12.742;2023-04-25T00:28:24;6.20;55.40
36280;DHT22;22317;47.936;12.742;2023-04-25T00:30:50;6.20;55.40
36280;DHT22;22317;47.936;12.742;2023-04-25T00:33:15;6.20;55.40
36280;DHT22;22317;47.936;12.742;2023-04-25T00:35:42;6.20;55.40
36280;DHT22;22317;47.936;12.742;2023-04-25T00:38:07;6.20;55.40
36280;DHT22;22317;47.936;12.742;2023-04-25T00:40:33;6.20;55.40
36280;DHT22;22317;47.936;12.742;2023-04-25T00:42:59;6.20;55.40
36280;DHT22;22317;47.936;12.742;2023-04-25T00:45:28;6.30;55.50
36280;DHT22;22317;47.936;12.742;2023-04-25T00:47:55;6.20;55.40
36280;DHT22;22317;47.936;12.742;2023-04-25T00:50:20;6.20;55.40
36280;DHT22;22317;47.936;12.742;2023-04-25T00:52:46;6.10;55.40
36280;DHT22;22317;47.936;12.742;2023-04-25T00:55:12;6.10;55.60
36280;DHT22;22317;47.936;12.742;2023-04-25T00:57:39;6.10;55.60
36280;DHT22;22317;47.936;12.742;2023-04-25T01:00:06;6.10;55.80
36280;DHT22;22317;47.936;12.742;2023-04-25T01:02:33;6.10;55.80
36280;DHT22;22317;47.936;12.742;2023-04-25T01:05:01;6.10;55.90
36280;DHT22;22317;47.936;12.742;2023-04-25T01:07:27;6.10;55.90
36280;DHT22;22317;47.936;12.742;2023-04-25T01:09:53;6.20;56.00
36280;DHT22;22317;47.936;12.742;2023-04-25T01:12:19;6.10;55.90
36280;DHT22;22317;47.936;12.742;2023-04-25T01:14:44;6.20;55.90
36280;DHT22;22317;47.936;12.742;2023-04-25T01:17:11;6.20;56.10
36280;DHT22;22317;47.936;12.742;2023-04-25T01:19:37;6.20;56.10
36280;DHT22;22317;47.936;12.742;2023-04-25T01:22:04;6.20;56.10
36280;DHT22;22317;47.936;12.742;2023-04-25T01:24:32;6.20;56.20
36280;DHT22;22317;47.936;12.742;2023-04-25T01:26:59;6.20;56.30
36280;DHT22;22317;47.936;12.742;2023-04-25T01:29:27;6.30;56.30
36280;DHT22;22317;47.936;12.742;2023-04-25T01:31:53;6.30;56.30
36280;DHT22;22317;47.936;12.742;2023-04-25T01:34:19;6.30;56.30
36280;DHT22;22317;47.936;12.742;2023-04-25T01:36:48;6.30;56.30
36280;DHT22;22317;47.936;12.742;2023-04-25T01:39:15;6.30;56.40
36280;DHT22;22317;47.936;12.742;2023-04-25T01:41:41;6.30;56.30
36280;DHT22;22317;47.936;12.742;2023-04-25T01:44:08;6.40;56.40
36280;DHT22;22317;47.936;12.742;2023-04-25T01:46:34;6.30;56.30
36280;DHT22;22317;47.936;12.742;2023-04-25T01:49:00;6.40;56.30
36280;DHT22;22317;47.936;12.742;2023-04-25T01:51:26;6.30;56.30
36280;DHT22;22317;47.936;12.742;2023-04-25T01:53:52;6.30;56.40
36280;DHT22;22317;47.936;12.742;2023-04-25T01:56:19;6.40;56.50
36280;DHT22;22317;47.936;12.742;2023-04-25T01:58:46;6.40;56.50
36280;DHT22;22317;47.936;12.742;2023-04-25T02:01:14;6.40;56.60
36280;DHT22;22317;47.936;12.742;2023-04-25T02:03:47;6.40;56.60
36280;DHT22;22317;47.936;12.742;2023-04-25T02:06:27;6.40;56.70
36280;DHT22;22317;47.936;12.742;2023-04-25T02:08:55;6.40;56.70
36280;DHT22;22317;47.936;12.742;2023-04-25T02:11:21;6.40;56.70
36280;DHT22;22317;47.936;12.742;2023-04-25T02:14:07;6.40;57.40
36280;DHT22;22317;47.936;12.742;2023-04-25T02:16:40;6.50;57.40
36280;DHT22;22317;47.936;12.742;2023-04-25T02:19:06;6.40;56.70
36280;DHT22;22317;47.936;12.742;2023-04-25T02:21:32;6.40;56.70
36280;DHT22;22317;47.936;12.742;2023-04-25T02:24:01;6.50;56.70
36280;DHT22;22317;47.936;12.742;2023-04-25T02:26:28;6.50;56.80
36280;DHT22;22317;47.936;12.742;2023-04-25T02:28:53;6.50;56.70
36280;DHT22;22317;47.936;12.742;2023-04-25T02:31:19;6.50;56.70
36280;DHT22;22317;47.936;12.742;2023-04-25T02:33:45;6.50;56.80
36280;DHT22;22317;47.936;12.742;2023-04-25T02:36:11;6.50;56.80
36280;DHT22;22317;47.936;12.742;2023-04-25T02:38:36;6.50;56.70
36280;DHT22;22317;47.936;12.742;2023-04-25T02:41:04;6.50;56.70
36280;DHT22;22317;47.936;12.742;2023-04-25T02:43:29;6.60;56.70
36280;DHT22;22317;47.936;12.742;2023-04-25T02:45:55;6.50;56.70
36280;DHT22;22317;47.936;12.742;2023-04-25T02:48:21;6.50;56.70
36280;DHT22;22317;47.936;12.742;2023-04-25T02:50:48;6.50;56.70
36280;DHT22;22317;47.936;12.742;2023-04-25T02:53:13;6.50;56.70
36280;DHT22;22317;47.936;12.742;2023-04-25T02:55:46;6.50;56.70
36280;DHT22;22317;47.936;12.742;2023-04-25T02:58:11;6.50;56.70
36280;DHT22;22317;47.936;12.742;2023-04-25T03:00:47;6.50;56.70
36280;DHT22;22317;47.936;12.742;2023-04-25T03:03:12;6.50;56.70
36280;DHT22;22317;47.936;12.742;2023-04-25T03:05:38;6.40;56.70
36280;DHT22;22317;47.936;12.742;2023-04-25T03:08:04;6.40;56.60
36280;DHT22;22317;47.936;12.742;2023-04-25T03:10:32;6.40;56.70
36280;DHT22;22317;47.936;12.742;2023-04-25T03:13:02;6.30;56.70
36280;DHT22;22317;47.936;12.742;2023-04-25T03:15:28;6.30;56.70
36280;DHT22;22317;47.936;12.742;2023-04-25T03:17:53;6.40;56.90
36280;DHT22;22317;47.936;12.742;2023-04-25T03:20:19;6.30;56.80
36280;DHT22;22317;47.936;12.742;2023-04-25T03:22:46;6.30;56.80
36280;DHT22;22317;47.936;12.742;2023-04-25T03:25:12;6.30;56.80
36280;DHT22;22317;47.936;12.742;2023-04-25T03:27:37;6.40;56.80
36280;DHT22;22317;47.936;12.742;2023-04-25T03:30:03;6.30;56.60
36280;DHT22;22317;47.936;12.742;2023-04-25T03:32:29;6.30;56.60
36280;DHT22;22317;47.936;12.742;2023-04-25T03:34:55;6.30;56.50
36280;DHT22;22317;47.936;12.742;2023-04-25T03:37:22;6.30;56.50
36280;DHT22;22317;47.936;12.742;2023-04-25T03:39:48;6.30;56.50
36280;DHT22;22317;47.936;12.742;2023-04-25T03:42:14;6.20;56.50
36280;DHT22;22317;47.936;12.742;2023-04-25T03:44:42;6.20;56.40
36280;DHT22;22317;47.936;12.742;2023-04-25T03:47:08;6.20;56.50
36280;DHT22;22317;47.936;12.742;2023-04-25T03:49:34;6.20;56.50
36280;DHT22;22317;47.936;12.742;2023-04-25T03:52:03;6.20;56.50
36280;DHT22;22317;47.936;12.742;2023-04-25T03:54:34;6.20;56.50
36280;DHT22;22317;47.936;12.742;2023-04-25T03:57:23;7.90;57.40
36280;DHT22;22317;47.936;12.742;2023-04-25T03:59:49;6.20;56.50
36280;DHT22;22317;47.936;12.742;2023-04-25T04:02:17;6.20;56.40
36280;DHT22;22317;47.936;12.742;2023-04-25T04:04:43;6.20;56.40
36280;DHT22;22317;47.936;12.742;2023-04-25T04:07:09;6.20;56.40
36280;DHT22;22317;47.936;12.742;2023-04-25T04:09:38;6.20;56.50
36280;DHT22;22317;47.936;12.742;2023-04-25T04:12:08;6.20;56.50
36280;DHT22;22317;47.936;12.742;2023-04-25T04:14:35;6.20;56.40
36280;DHT22;22317;47.936;12.742;2023-04-25T04:17:01;6.20;56.40
36280;DHT22;22317;47.936;12.742;2023-04-25T04:19:28;6.20;56.40
36280;DHT22;22317;47.936;12.742;2023-04-25T04:22:17;6.20;56.50
36280;DHT22;22317;47.936;12.742;2023-04-25T04:24:43;6.20;56.40
36280;DHT22;22317;47.936;12.742;2023-04-25T04:27:14;6.20;56.40
36280;DHT22;22317;47.936;12.742;2023-04-25T04:30:04;6.20;56.20
36280;DHT22;22317;47.936;12.742;2023-04-25T04:32:33;6.20;56.40
36280;DHT22;22317;47.936;12.742;2023-04-25T04:35:04;6.20;56.40
36280;DHT22;22317;47.936;12.742;2023-04-25T04:37:30;6.20;56.50
36280;DHT22;22317;47.936;12.742;2023-04-25T04:39:57;6.20;56.60
36280;DHT22;22317;47.936;12.742;2023-04-25T04:42:38;6.20;56.60
36280;DHT22;22317;47.936;12.742;2023-04-25T04:45:15;6.20;56.60
36280;DHT22;22317;47.936;12.742;2023-04-25T04:48:06;6.20;56.40
36280;DHT22;22317;47.936;12.742;2023-04-25T04:50:52;6.20;56.40
36280;DHT22;22317;47.936;12.742;2023-04-25T04:53:24;6.20;56.30
36280;DHT22;22317;47.936;12.742;2023-04-25T04:55:50;6.30;56.50
36280;DHT22;22317;47.936;12.742;2023-04-25T04:58:48;6.20;56.40
36280;DHT22;22317;47.936;12.742;2023-04-25T05:01:29;6.30;56.60
36280;DHT22;22317;47.936;12.742;2023-04-25T05:04:02;6.30;56.50
36280;DHT22;22317;47.936;12.742;2023-04-25T05:06:47;6.30;56.50
36280;DHT22;22317;47.936;12.742;2023-04-25T05:09:13;6.30;56.20
36280;DHT22;22317;47.936;12.742;2023-04-25T05:12:04;6.20;56.10
36280;DHT22;22317;47.936;12.742;2023-04-25T05:14:48;6.10;56.20
36280;DHT22;22317;47.936;12.742;2023-04-25T05:17:35;5.90;56.10
36280;DHT22;22317;47.936;12.742;2023-04-25T05:20:19;5.80;56.20
36280;DHT22;22317;47.936;12.742;2023-04-25T05:23:03;5.70;56.20
36280;DHT22;22317;47.936;12.742;2023-04-25T05:25:48;5.70;56.40
36280;DHT22;22317;47.936;12.742;2023-04-25T05:28:21;5.70;56.60
36280;DHT22;22317;47.936;12.742;2023-04-25T05:31:03;5.70;56.70
36280;DHT22;22317;47.936;12.742;2023-04-25T05:33:45;5.70;56.80
36280;DHT22;22317;47.936;12.742;2023-04-25T05:36:11;5.80;57.10
36280;DHT22;22317;47.936;12.742;2023-04-25T05:38:37;5.90;57.20
36280;DHT22;22317;47.936;12.742;2023-04-25T05:41:21;6.00;57.20
36280;DHT22;22317;47.936;12.742;2023-04-25T05:44:08;6.10;57.00
36280;DHT22;22317;47.936;12.742;2023-04-25T05:46:45;6.10;56.70
36280;DHT22;22317;47.936;12.742;2023-04-25T05:49:11;6.10;56.70
36280;DHT22;22317;47.936;12.742;2023-04-25T05:51:57;6.10;56.70
36280;DHT22;22317;47.936;12.742;2023-04-25T05:54:36;6.20;56.70
36280;DHT22;22317;47.936;12.742;2023-04-25T05:57:03;6.10;56.40
36280;DHT22;22317;47.936;12.742;2023-04-25T05:59:29;6.10;56.40
36280;DHT22;22317;47.936;12.742;2023-04-25T06:01:55;6.10;56.40
36280;DHT22;22317;47.936;12.742;2023-04-25T06:04:21;6.10;56.40
36280;DHT22;22317;47.936;12.742;2023-04-25T06:06:47;6.10;56.40
36280;DHT22;22317;47.936;12.742;2023-04-25T06:09:13;6.10;56.50
36280;DHT22;22317;47.936;12.742;2023-04-25T06:11:40;6.20;56.70
36280;DHT22;22317;47.936;12.742;2023-04-25T06:14:06;6.20;56.40
36280;DHT22;22317;47.936;12.742;2023-04-25T06:16:34;6.20;56.10
36280;DHT22;22317;47.936;12.742;2023-04-25T06:19:00;6.10;55.90
36280;DHT22;22317;47.936;12.742;2023-04-25T06:21:25;6.00;55.90
36280;DHT22;22317;47.936;12.742;2023-04-25T06:23:52;5.90;56.10
36280;DHT22;22317;47.936;12.742;2023-04-25T06:26:21;5.90;56.00
36280;DHT22;22317;47.936;12.742;2023-04-25T06:28:47;5.80;56.10
36280;DHT22;22317;47.936;12.742;2023-04-25T06:31:13;6.00;56.30
36280;DHT22;22317;47.936;12.742;2023-04-25T06:33:40;5.80;56.20
36280;DHT22;22317;47.936;12.742;2023-04-25T06:36:07;5.80;56.30
36280;DHT22;22317;47.936;12.742;2023-04-25T06:38:33;5.90;56.40
36280;DHT22;22317;47.936;12.742;2023-04-25T06:41:00;6.00;56.70
36280;DHT22;22317;47.936;12.742;2023-04-25T06:43:29;6.10;56.90
36280;DHT22;22317;47.936;12.742;2023-04-25T06:46:10;6.30;56.90
36280;DHT22;22317;47.936;12.742;2023-04-25T06:48:42;6.40;56.70
36280;DHT22;22317;47.936;12.742;2023-04-25T06:51:07;6.50;56.60
36280;DHT22;22317;47.936;12.742;2023-04-25T06:53:35;6.60;56.50
36280;DHT22;22317;47.936;12.742;2023-04-25T06:56:03;6.70;56.30
36280;DHT22;22317;47.936;12.742;2023-04-25T06:58:59;6.80;56.20
36280;DHT22;22317;47.936;12.742;2023-04-25T07:01:34;6.90;56.00
36280;DHT22;22317;47.936;12.742;2023-04-25T07:04:04;7.00;55.80
36280;DHT22;22317;47.936;12.742;2023-04-25T07:06:32;7.00;55.60
36280;DHT22;22317;47.936;12.742;2023-04-25T07:08:58;7.10;55.40
36280;DHT22;22317;47.936;12.742;2023-04-25T07:11:23;7.10;55.40
36280;DHT22;22317;47.936;12.742;2023-04-25T07:13:49;7.10;55.20
36280;DHT22;22317;47.936;12.742;2023-04-25T07:16:16;7.10;55.00
36280;DHT22;22317;47.936;12.742;2023-04-25T07:18:42;7.20;55.30
36280;DHT22;22317;47.936;12.742;2023-04-25T07:21:08;7.40;55.20
36280;DHT22;22317;47.936;12.742;2023-04-25T07:23:35;7.50;55.40
36280;DHT22;22317;47.936;12.742;2023-04-25T07:26:08;7.80;55.60
36280;DHT22;22317;47.936;12.742;2023-04-25T07:28:35;8.00;55.40
36280;DHT22;22317;47.936;12.742;2023-04-25T07:31:01;8.20;55.10
36280;DHT22;22317;47.936;12.742;2023-04-25T07:33:27;8.40;54.20
36280;DHT22;22317;47.936;12.742;2023-04-25T07:35:53;8.30;53.40
36280;DHT22;22317;47.936;12.742;2023-04-25T07:38:20;8.30;53.10
36280;DHT22;22317;47.936;12.742;2023-04-25T07:40:48;8.20;52.90
36280;DHT22;22317;47.936;12.742;2023-04-25T07:43:15;8.20;52.80
36280;DHT22;22317;47.936;12.742;2023-04-25T07:45:49;8.20;53.10
36280;DHT22;22317;47.936;12.742;2023-04-25T07:48:18;8.30;53.10
36280;DHT22;22317;47.936;12.742;2023-04-25T07:50:47;8.30;52.90
36280;DHT22;22317;47.936;12.742;2023-04-25T07:53:13;8.40;52.50
36280;DHT22;22317;47.936;12.742;2023-04-25T07:55:46;8.40;52.60
36280;DHT22;22317;47.936;12.742;2023-04-25T07:58:16;8.40;52.30
36280;DHT22;22317;47.936;12.742;2023-04-25T08:00:48;8.40;53.00
36280;DHT22;22317;47.936;12.742;2023-04-25T08:03:26;8.50;52.40
36280;DHT22;22317;47.936;12.742;2023-04-25T08:05:53;8.60;52.40
36280;DHT22;22317;47.936;12.742;2023-04-25T08:08:19;8.70;52.20
36280;DHT22;22317;47.936;12.742;2023-04-25T08:10:45;8.80;52.10
36280;DHT22;22317;47.936;12.742;2023-04-25T08:13:14;8.90;52.00
36280;DHT22;22317;47.936;12.742;2023-04-25T08:15:40;9.10;52.20
36280;DHT22;22317;47.936;12.742;2023-04-25T08:18:06;9.20;52.00
36280;DHT22;22317;47.936;12.742;2023-04-25T08:20:32;9.30;51.70
36280;DHT22;22317;47.936;12.742;2023-04-25T08:23:00;9.50;52.00
36280;DHT22;22317;47.936;12.742;2023-04-25T08:25:35;9.80;52.10
36280;DHT22;22317;47.936;12.742;2023-04-25T08:28:01;10.00;51.50
36280;DHT22;22317;47.936;12.742;2023-04-25T08:30:29;10.20;50.40
36280;DHT22;22317;47.936;12.742;2023-04-25T08:32:55;10.20;49.70
36280;DHT22;22317;47.936;12.742;2023-04-25T08:35:39;10.10;49.00
36280;DHT22;22317;47.936;12.742;2023-04-25T08:38:06;10.00;49.20
36280;DHT22;22317;47.936;12.742;2023-04-25T08:40:37;9.80;48.50
36280;DHT22;22317;47.936;12.742;2023-04-25T08:43:23;9.60;48.80
36280;DHT22;22317;47.936;12.742;2023-04-25T08:45:49;9.40;48.90
36280;DHT22;22317;47.936;12.742;2023-04-25T08:48:32;9.30;49.30
36280;DHT22;22317;47.936;12.742;2023-04-25T08:51:01;9.00;49.30
36280;DHT22;22317;47.936;12.742;2023-04-25T08:53:29;9.00;49.60
36280;DHT22;22317;47.936;12.742;2023-04-25T08:55:59;9.00;50.40
36280;DHT22;22317;47.936;12.742;2023-04-25T08:58:25;9.10;50.90
36280;DHT22;22317;47.936;12.742;2023-04-25T09:00:52;9.20;50.80
36280;DHT22;22317;47.936;12.742;2023-04-25T09:03:21;9.20;50.70
36280;DHT22;22317;47.936;12.742;2023-04-25T09:05:47;9.30;50.50
36280;DHT22;22317;47.936;12.742;2023-04-25T09:08:15;9.40;50.80
36280;DHT22;22317;47.936;12.742;2023-04-25T09:10:41;9.60;51.10
36280;DHT22;22317;47.936;12.742;2023-04-25T09:13:14;9.80;51.10
36280;DHT22;22317;47.936;12.742;2023-04-25T09:16:04;10.00;50.30
36280;DHT22;22317;47.936;12.742;2023-04-25T09:18:51;10.10;50.20
36280;DHT22;22317;47.936;12.742;2023-04-25T09:21:22;10.40;50.80
36280;DHT22;22317;47.936;12.742;2023-04-25T09:23:49;10.60;50.70
36280;DHT22;22317;47.936;12.742;2023-04-25T09:26:19;10.80;50.40
36280;DHT22;22317;47.936;12.742;2023-04-25T09:28:45;11.00;50.20
36280;DHT22;22317;47.936;12.742;2023-04-25T09:31:22;11.30;49.90
36280;DHT22;22317;47.936;12.742;2023-04-25T09:33:50;11.50;49.10
36280;DHT22;22317;47.936;12.742;2023-04-25T09:36:26;11.50;48.20
36280;DHT22;22317;47.936;12.742;2023-04-25T09:39:03;11.60;48.30
36280;DHT22;22317;47.936;12.742;2023-04-25T09:41:41;11.70;47.50
36280;DHT22;22317;47.936;12.742;2023-04-25T09:44:06;11.70;46.90
36280;DHT22;22317;47.936;12.742;2023-04-25T09:46:35;11.80;47.40
36280;DHT22;22317;47.936;12.742;2023-04-25T09:49:07;12.00;48.00
36280;DHT22;22317;47.936;12.742;2023-04-25T09:51:41;12.30;47.80
36280;DHT22;22317;47.936;12.742;2023-04-25T09:54:09;12.50;47.80
36280;DHT22;22317;47.936;12.742;2023-04-25T09:56:39;12.70;47.20
36280;DHT22;22317;47.936;12.742;2023-04-25T09:59:07;12.80;46.80
36280;DHT22;22317;47.936;12.742;2023-04-25T10:01:36;12.80;46.30
36280;DHT22;22317;47.936;12.742;2023-04-25T10:04:25;13.00;46.80
36280;DHT22;22317;47.936;12.742;2023-04-25T10:06:57;13.30;47.20
36280;DHT22;22317;47.936;12.742;2023-04-25T10:09:26;13.50;46.80
36280;DHT22;22317;47.936;12.742;2023-04-25T10:11:52;13.70;46.30
36280;DHT22;22317;47.936;12.742;2023-04-25T10:14:18;13.90;46.00
36280;DHT22;22317;47.936;12.742;2023-04-25T10:16:45;14.10;45.30
36280;DHT22;22317;47.936;12.742;2023-04-25T10:19:12;14.20;44.70
36280;DHT22;22317;47.936;12.742;2023-04-25T10:22:06;14.40;44.20
36280;DHT22;22317;47.936;12.742;2023-04-25T10:24:34;14.40;43.20
36280;DHT22;22317;47.936;12.742;2023-04-25T10:27:01;14.50;43.50
36280;DHT22;22317;47.936;12.742;2023-04-25T10:29:27;14.50;43.20
36280;DHT22;22317;47.936;12.742;2023-04-25T10:31:53;14.70;42.90
36280;DHT22;22317;47.936;12.742;2023-04-25T10:34:24;14.80;42.70
36280;DHT22;22317;47.936;12.742;2023-04-25T10:36:51;14.90;42.80
36280;DHT22;22317;47.936;12.742;2023-04-25T10:39:26;15.00;42.40
36280;DHT22;22317;47.936;12.742;2023-04-25T10:41:57;15.10;41.50
36280;DHT22;22317;47.936;12.742;2023-04-25T10:44:26;15.10;41.60
36280;DHT22;22317;47.936;12.742;2023-04-25T10:46:55;15.10;41.30
36280;DHT22;22317;47.936;12.742;2023-04-25T10:49:41;15.00;40.90
36280;DHT22;22317;47.936;12.742;2023-04-25T11:00:16;14.10;38.40
36280;DHT22;22317;47.936;12.742;2023-04-25T11:05:29;13.00;39.30
36280;DHT22;22317;47.936;12.742;2023-04-25T11:07:57;12.50;39.70
36280;DHT22;22317;47.936;12.742;2023-04-25T11:10:27;12.10;40.70
36280;DHT22;22317;47.936;12.742;2023-04-25T11:12:53;11.90;41.60
36280;DHT22;22317;47.936;12.742;2023-04-25T11:15:19;11.70;42.10
36280;DHT22;22317;47.936;12.742;2023-04-25T11:17:44;11.50;42.40
36280;DHT22;22317;47.936;12.742;2023-04-25T11:20:13;11.40;42.80
36280;DHT22;22317;47.936;12.742;2023-04-25T11:22:41;11.30;43.30
36280;DHT22;22317;47.936;12.742;2023-04-25T11:25:09;11.20;43.50
36280;DHT22;22317;47.936;12.742;2023-04-25T11:27:52;11.30;44.20
36280;DHT22;22317;47.936;12.742;2023-04-25T11:30:19;11.30;44.50
36280;DHT22;22317;47.936;12.742;2023-04-25T11:32:46;11.50;45.00
36280;DHT22;22317;47.936;12.742;2023-04-25T11:35:12;11.70;45.00
36280;DHT22;22317;47.936;12.742;2023-04-25T11:37:42;11.70;44.50
36280;DHT22;22317;47.936;12.742;2023-04-25T11:40:09;11.80;44.80
36280;DHT22;22317;47.936;12.742;2023-04-25T11:42:39;12.00;45.00
36280;DHT22;22317;47.936;12.742;2023-04-25T11:45:08;12.30;45.60
36280;DHT22;22317;47.936;12.742;2023-04-25T11:47:35;12.60;45.60
36280;DHT22;22317;47.936;12.742;2023-04-25T11:50:06;12.90;45.20
36280;DHT22;22317;47.936;12.742;2023-04-25T11:55:07;13.10;42.90
36280;DHT22;22317;47.936;12.742;2023-04-25T11:57:33;13.00;42.50
36280;DHT22;22317;47.936;12.742;2023-04-25T12:00:13;12.90;42.20
36280;DHT22;22317;47.936;12.742;2023-04-25T12:02:41;12.70;41.90
36280;DHT22;22317;47.936;12.742;2023-04-25T12:05:09;12.70;42.10
36280;DHT22;22317;47.936;12.742;2023-04-25T12:07:35;12.60;41.90
36280;DHT22;22317;47.936;12.742;2023-04-25T12:10:13;12.50;41.50
36280;DHT22;22317;47.936;12.742;2023-04-25T12:12:46;12.30;41.40
36280;DHT22;22317;47.936;12.742;2023-04-25T12:15:18;12.20;41.40
36280;DHT22;22317;47.936;12.742;2023-04-25T12:17:48;12.20;41.40
36280;DHT22;22317;47.936;12.742;2023-04-25T12:20:19;12.30;41.70
36280;DHT22;22317;47.936;12.742;2023-04-25T12:22:47;12.40;41.40
36280;DHT22;22317;47.936;12.742;2023-04-25T12:28:22;12.40;41.40
36280;DHT22;22317;47.936;12.742;2023-04-25T12:33:29;12.40;41.30
36280;DHT22;22317;47.936;12.742;2023-04-25T12:35:55;12.40;41.20
36280;DHT22;22317;47.936;12.742;2023-04-25T12:40:51;12.70;41.50
36280;DHT22;22317;47.936;12.742;2023-04-25T12:43:16;12.80;41.50
36280;DHT22;22317;47.936;12.742;2023-04-25T12:45:44;12.80;41.40
36280;DHT22;22317;47.936;12.742;2023-04-25T12:48:10;12.70;41.50
36280;DHT22;22317;47.936;12.742;2023-04-25T12:50:35;12.60;41.60
36280;DHT22;22317;47.936;12.742;2023-04-25T12:53:01;12.40;41.50
36280;DHT22;22317;47.936;12.742;2023-04-25T12:55:27;12.00;41.00
36280;DHT22;22317;47.936;12.742;2023-04-25T12:57:53;11.50;40.50
36280;DHT22;22317;47.936;12.742;2023-04-25T13:00:18;10.80;40.30
36280;DHT22;22317;47.936;12.742;2023-04-25T13:02:45;10.20;40.90
36280;DHT22;22317;47.936;12.742;2023-04-25T13:05:13;9.70;41.60
36280;DHT22;22317;47.936;12.742;2023-04-25T13:07:39;9.20;42.40
36280;DHT22;22317;47.936;12.742;2023-04-25T13:10:06;8.70;43.20
36280;DHT22;22317;47.936;12.742;2023-04-25T13:12:33;8.30;44.10
36280;DHT22;22317;47.936;12.742;2023-04-25T13:14:58;8.00;45.00
36280;DHT22;22317;47.936;12.742;2023-04-25T13:17:24;7.80;45.70
36280;DHT22;22317;47.936;12.742;2023-04-25T13:19:50;7.60;46.50
36280;DHT22;22317;47.936;12.742;2023-04-25T13:22:16;7.40;47.30
36280;DHT22;22317;47.936;12.742;2023-04-25T13:24:42;7.30;47.90
36280;DHT22;22317;47.936;12.742;2023-04-25T13:27:08;7.30;48.60
36280;DHT22;22317;47.936;12.742;2023-04-25T13:29:34;7.20;48.90
36280;DHT22;22317;47.936;12.742;2023-04-25T13:32:01;7.10;49.40
36280;DHT22;22317;47.936;12.742;2023-04-25T13:34:28;7.10;50.00
36280;DHT22;22317;47.936;12.742;2023-04-25T13:36:54;7.20;50.60
36280;DHT22;22317;47.936;12.742;2023-04-25T13:39:20;7.30;51.00
36280;DHT22;22317;47.936;12.742;2023-04-25T13:41:45;7.40;51.50
36280;DHT22;22317;47.936;12.742;2023-04-25T13:44:11;7.50;51.60
36280;DHT22;22317;47.936;12.742;2023-04-25T13:46:37;7.60;51.70
36280;DHT22;22317;47.936;12.742;2023-04-25T13:49:04;7.10;51.60
36280;DHT22;22317;47.936;12.742;2023-04-25T13:51:29;8.10;52.30
36280;DHT22;22317;47.936;12.742;2023-04-25T13:53:56;8.40;52.50
36280;DHT22;22317;47.936;12.742;2023-04-25T13:56:22;8.70;52.50
36280;DHT22;22317;47.936;12.742;2023-04-25T13:58:50;9.00;52.30
36280;DHT22;22317;47.936;12.742;2023-04-25T14:01:16;9.10;52.10
36280;DHT22;22317;47.936;12.742;2023-04-25T14:03:42;9.30;52.30
36280;DHT22;22317;47.936;12.742;2023-04-25T14:06:09;9.50;52.90
36280;DHT22;22317;47.936;12.742;2023-04-25T14:08:34;9.70;52.50
36280;DHT22;22317;47.936;12.742;2023-04-25T14:11:00;10.40;53.80
36280;DHT22;22317;47.936;12.742;2023-04-25T14:13:26;11.50;54.30
36280;DHT22;22317;47.936;12.742;2023-04-25T14:15:52;12.50;52.90
36280;DHT22;22317;47.936;12.742;2023-04-25T14:18:18;13.50;52.50
36280;DHT22;22317;47.936;12.742;2023-04-25T14:20:45;14.50;50.50
36280;DHT22;22317;47.936;12.742;2023-04-25T14:23:11;14.70;48.10
36280;DHT22;22317;47.936;12.742;2023-04-25T14:25:37;14.60;46.50
36280;DHT22;22317;47.936;12.742;2023-04-25T14:28:03;14.20;45.60
36280;DHT22;22317;47.936;12.742;2023-04-25T14:30:29;13.70;45.20
36280;DHT22;22317;47.936;12.742;2023-04-25T14:32:55;13.20;45.40
36280;DHT22;22317;47.936;12.742;2023-04-25T14:35:21;12.70;46.00
36280;DHT22;22317;47.936;12.742;2023-04-25T14:37:46;12.40;46.70
36280;DHT22;22317;47.936;12.742;2023-04-25T14:40:13;12.10;47.10
36280;DHT22;22317;47.936;12.742;2023-04-25T14:42:40;11.80;47.50
36280;DHT22;22317;47.936;12.742;2023-04-25T14:45:08;11.60;47.70
36280;DHT22;22317;47.936;12.742;2023-04-25T14:47:35;11.30;47.60
36280;DHT22;22317;47.936;12.742;2023-04-25T14:50:02;11.10;47.80
36280;DHT22;22317;47.936;12.742;2023-04-25T14:52:28;10.80;47.80
36280;DHT22;22317;47.936;12.742;2023-04-25T14:54:54;10.60;48.20
36280;DHT22;22317;47.936;12.742;2023-04-25T14:57:20;10.60;50.30
36280;DHT22;22317;47.936;12.742;2023-04-25T14:59:45;11.40;52.10
36280;DHT22;22317;47.936;12.742;2023-04-25T15:02:11;12.50;52.40
36280;DHT22;22317;47.936;12.742;2023-04-25T15:04:37;13.70;51.30
36280;DHT22;22317;47.936;12.742;2023-04-25T15:07:03;14.60;49.70
36280;DHT22;22317;47.936;12.742;2023-04-25T15:09:29;15.30;48.30
36280;DHT22;22317;47.936;12.742;2023-04-25T15:11:56;15.70;47.80
36280;DHT22;22317;47.936;12.742;2023-04-25T15:14:22;15.60;44.40
36280;DHT22;22317;47.936;12.742;2023-04-25T15:16:48;15.30;43.70
36280;DHT22;22317;47.936;12.742;2023-04-25T15:19:13;14.70;42.80
36280;DHT22;22317;47.936;12.742;2023-04-25T15:21:39;14.20;43.00
36280;DHT22;22317;47.936;12.742;2023-04-25T15:24:05;13.60;42.90
36280;DHT22;22317;47.936;12.742;2023-04-25T15:26:31;13.10;43.40
36280;DHT22;22317;47.936;12.742;2023-04-25T15:28:56;12.60;44.10
36280;DHT22;22317;47.936;12.742;2023-04-25T15:31:22;12.20;44.50
36280;DHT22;22317;47.936;12.742;2023-04-25T15:33:48;11.90;44.90
36280;DHT22;22317;47.936;12.742;2023-04-25T15:36:14;11.50;45.20
36280;DHT22;22317;47.936;12.742;2023-04-25T15:38:42;11.20;45.40
36280;DHT22;22317;47.936;12.742;2023-04-25T15:41:08;10.80;45.60
36280;DHT22;22317;47.936;12.742;2023-04-25T15:43:34;10.50;46.00
36280;DHT22;22317;47.936;12.742;2023-04-25T15:46:04;10.20;46.40
36280;DHT22;22317;47.936;12.742;2023-04-25T15:48:31;9.90;46.90
36280;DHT22;22317;47.936;12.742;2023-04-25T15:50:57;9.70;47.20
36280;DHT22;22317;47.936;12.742;2023-04-25T15:53:23;9.50;47.70
36280;DHT22;22317;47.936;12.742;2023-04-25T15:55:49;9.30;47.90
36280;DHT22;22317;47.936;12.742;2023-04-25T15:58:14;9.20;48.30